Flight Track Log - Related Links

Times and Time Zones

All times are in EDT time to prevent confusion due to time zone crossing. See the GLA85D flight status page for this flight to view local times or setup timezone preferences in your user account.


Time Position Orientation Groundspeed Altitude Reporting Facility
EDT Latitude Longitude Course Direction KTS MPH feet Rate Location/Type
Fri 09:30:41 AM 39.8000 -104.6333 108° East 188 216 7,600  Level Denver TRACON
Fri 09:31:41 AM 39.7500 -104.5833 142° Southeast 213 245 9,000 1,071 Climbing Denver TRACON
Fri 09:32:05 AM 39.7300 -104.5681 150° Southeast 215 247 9,100 71 Climbing Denver Center
Fri 09:33:06 AM 39.6850 -104.5011 131° Southeast 237 273 9,100 -49 Level Denver Center
Fri 09:34:07 AM 39.6742 -104.4183 100° East 233 268 9,000  Descending Denver Center
Fri 09:35:08 AM 39.6631 -104.3364 100° East 232 267 9,100 295 Climbing Denver Center
Fri 09:36:00 AM 39.6913 -104.2151 108° East  Level FlightAware Approximate
Fri 09:36:09 AM 39.6536 -104.2511 98° East 237 273 9,600  Level Denver Center
Fri 09:37:10 AM 39.6408 -104.1583 100° East 242 278 10,900 716 Climbing Denver Center
Fri 09:38:23 AM 39.6269 -104.0681 101° East 254 292 11,200 1,030 Climbing Denver Center
Fri 09:39:24 AM 39.6086 -103.9597 102° East 247 284 13,200 1,525 Climbing Denver Center
Fri 09:40:25 AM 39.5992 -103.8961 101° East 237 273 14,300 1,230 Climbing Denver Center
Fri 09:41:26 AM 39.5797 -103.7944 104° East 238 274 15,700 1,328 Climbing Denver Center
Fri 09:42:27 AM 39.5628 -103.7064 104° East 243 280 17,000 984 Climbing Denver Center
Fri 09:43:28 AM 39.5453 -103.6322 107° East 234 269 17,700 934 Climbing Denver Center
Fri 09:44:29 AM 39.5167 -103.5386 112° Southeast 248 285 18,900 1,131 Climbing Denver Center
Fri 09:45:30 AM 39.4944 -103.4594 110° East 247 284 20,000 976 Climbing Denver Center
Fri 09:46:32 AM 39.4767 -103.3783 106° East 244 281 20,900 927 Climbing Denver Center
Fri 09:47:33 AM 39.4497 -103.2867 111° Southeast 245 282 21,900 885 Climbing Denver Center
Fri 09:48:34 AM 39.4194 -103.2122 118° Southeast 245 282 22,700 541 Climbing Denver Center
Fri 09:49:35 AM 39.3878 -103.1364 118° Southeast 251 289 23,000 148 Climbing Denver Center
Fri 09:50:36 AM 39.3492 -103.0450 119° Southeast 258 297 23,000  Level Denver Center
Fri 09:51:37 AM 39.3169 -102.9653 118° Southeast 260 299 23,000  Level Denver Center
Fri 09:52:39 AM 39.2797 -102.8736 118° Southeast 258 297 23,000  Level Denver Center
Fri 09:53:40 AM 39.2450 -102.7989 121° Southeast 255 293 23,000  Level Denver Center
Fri 09:54:41 AM 39.2061 -102.7164 121° Southeast 252 290 23,000  Level Denver Center
Fri 09:55:42 AM 39.1703 -102.6447 123° Southeast 250 288 23,000  Level Denver Center
Fri 09:56:56 AM 39.1342 -102.5725 123° Southeast 251 289 23,000  Level Denver Center
Fri 09:57:57 AM 39.0861 -102.4775 123° Southeast 249 287 23,000  Level Denver Center
Fri 09:58:59 AM 39.0511 -102.4067 122° Southeast 247 284 23,000  Level Denver Center
Fri 10:00:01 AM 39.0089 -102.3231 123° Southeast 250 288 23,000  Level Denver Center
Fri 10:01:02 AM 38.9742 -102.2511 122° Southeast 249 287 23,000  Level Denver Center
Fri 10:02:04 AM 38.9306 -102.1719 125° Southeast 244 281 23,000  Level Denver Center
Fri 10:03:05 AM 38.8906 -102.1036 127° Southeast 248 285 23,000  Level Denver Center
Fri 10:04:06 AM 38.8422 -102.0269 129° Southeast 249 287 23,000  Level Denver Center
Fri 10:05:08 AM 38.8028 -101.9572 126° Southeast 251 289 23,000  Level Denver Center
Fri 10:06:09 AM 38.7650 -101.8881 125° Southeast 249 287 23,000  Level Denver Center
Fri 10:07:11 AM 38.7181 -101.8078 127° Southeast 252 290 23,000  Level Denver Center
Fri 10:08:12 AM 38.6811 -101.7356 123° Southeast 253 291 23,000  Level Denver Center
Fri 10:09:14 AM 38.6364 -101.6531 125° Southeast 252 290 23,000  Level Denver Center
Fri 10:10:15 AM 38.5956 -101.5806 126° Southeast 260 299 23,000  Level Denver Center
Fri 10:11:17 AM 38.5569 -101.5117 126° Southeast 251 289 23,000  Level Denver Center
Fri 10:12:18 AM 38.5133 -101.4267 123° Southeast 253 291 23,000  Level Denver Center
Fri 10:13:20 AM 38.4794 -101.3500 119° Southeast 256 295 23,000  Level Denver Center
Fri 10:14:21 AM 38.4417 -101.2611 118° Southeast 255 293 23,000  Level Denver Center
Fri 10:15:23 AM 38.4111 -101.1836 117° Southeast 255 293 23,000  Level Denver Center
Fri 10:16:24 AM 38.3808 -101.1069 117° Southeast 254 292 23,000  Level Denver Center
Fri 10:17:26 AM 38.3442 -101.0167 117° Southeast 255 293 23,000  Level Denver Center
Fri 10:18:27 AM 38.3122 -100.9389 118° Southeast 258 297 23,000 -244 Level Denver Center
Fri 10:19:29 AM 38.2744 -100.8494 118° Southeast 257 296 22,500 -774 Descending Denver Center
Fri 10:20:31 AM 38.2386 -100.7778 122° Southeast 251 289 21,400 -1,268 Descending Denver Center
Fri 10:21:32 AM 38.1953 -100.6986 125° Southeast 245 282 19,900 -1,317 Descending Denver Center
Fri 10:22:34 AM 38.1603 -100.6306 123° Southeast 241 277 18,700 -1,157 Descending Denver Center
Fri 10:22:55 AM 38.1492 -100.6081 122° Southeast 241 277 18,300 -1,157 Descending Kansas City Center
Fri 10:23:57 AM 38.1142 -100.5414 124° Southeast 238 274 17,100 -1,306 Descending Kansas City Center
Fri 10:24:59 AM 38.0717 -100.4628 124° Southeast 239 275 15,600 -1,438 Descending Kansas City Center
Fri 10:25:58 AM 38.0369 -100.3956 123° Southeast 239 275 14,200 -1,424 Descending Kansas City Center
Fri 10:27:00 AM 37.9847 -100.3322 136° Southeast  Level FlightAware Approximate
Fri 10:34:00 AM 37.7631 -99.9654 122° Southeast  Level Estimated
Fri 10:35:00 AM 37.7631 -99.9654 122° Southeast  Level Estimated
Fri 10:36:00 AM 37.7631 -99.9654 122° Southeast  Level Estimated
Fri 10:37:00 AM 37.7631 -99.9654 122° Southeast  Level Estimated

Login

Don't have an account? Register now (free) for customized features, flight alerts, and more!